createdAt,value
2018-09-21T00:00:19.112Z,4.13
2018-09-21T00:02:48.750Z,4.50
2018-09-21T00:05:18.150Z,4.00
2018-09-21T00:07:47.669Z,4.53
2018-09-21T00:10:17.431Z,4.90
2018-09-21T00:12:46.947Z,3.23
2018-09-21T00:15:16.441Z,4.67
2018-09-21T00:17:45.867Z,5.00
2018-09-21T00:20:15.267Z,4.90
2018-09-21T00:22:44.546Z,4.70
2018-09-21T00:25:14.187Z,5.03
2018-09-21T00:27:43.704Z,5.03
2018-09-21T00:30:13.226Z,4.13
2018-09-21T00:32:42.627Z,5.10
2018-09-21T00:35:12.142Z,4.70
2018-09-21T00:37:42.743Z,7.30
2018-09-21T00:40:12.861Z,4.50
2018-09-21T00:42:42.136Z,4.40
2018-09-21T00:45:11.541Z,5.33
2018-09-21T00:47:41.300Z,3.40
2018-09-21T00:50:10.937Z,4.63
2018-09-21T00:52:40.577Z,4.80
2018-09-21T00:55:10.099Z,3.37
2018-09-21T00:57:39.744Z,4.67
2018-09-21T01:00:09.254Z,4.53
2018-09-21T01:02:38.797Z,6.53
2018-09-21T01:05:08.539Z,5.27
2018-09-21T01:07:38.729Z,4.93
2018-09-21T01:10:08.420Z,5.80
2018-09-21T01:12:37.811Z,4.97
2018-09-21T01:15:07.452Z,4.23
2018-09-21T01:17:36.975Z,4.17
2018-09-21T01:20:06.730Z,4.83
2018-09-21T01:22:36.131Z,5.90
2018-09-21T01:25:05.648Z,4.57
2018-09-21T01:27:35.049Z,5.10
2018-09-21T01:30:04.570Z,4.73
2018-09-21T01:32:33.969Z,5.33
2018-09-21T01:35:03.850Z,5.10
2018-09-21T01:37:33.365Z,5.23
2018-09-21T01:40:03.016Z,4.60
2018-09-21T01:42:32.886Z,4.43
2018-09-21T01:45:03.256Z,4.80
2018-09-21T01:47:32.644Z,4.70
2018-09-21T01:50:02.164Z,4.63
2018-09-21T01:52:31.803Z,5.10
2018-09-21T01:55:01.321Z,4.47
2018-09-21T01:57:30.841Z,3.77
2018-09-21T02:00:00.243Z,5.10
2018-09-21T02:02:30.362Z,4.77
2018-09-21T02:04:59.759Z,6.70
2018-09-21T02:07:29.158Z,4.23
2018-09-21T02:09:59.965Z,5.70
2018-09-21T02:12:29.521Z,3.67
2018-09-21T02:14:58.916Z,4.23
2018-09-21T02:17:28.349Z,5.00
2018-09-21T02:19:57.958Z,4.53
2018-09-21T02:22:27.473Z,4.83
2018-09-21T02:24:56.995Z,5.03
2018-09-21T02:27:26.637Z,5.13
2018-09-21T02:29:56.274Z,7.17
2018-09-21T02:32:25.913Z,5.00
2018-09-21T02:34:55.436Z,5.63
2018-09-21T02:37:25.910Z,4.00
2018-09-21T02:39:56.510Z,5.00
2018-09-21T02:42:25.793Z,6.77
2018-09-21T02:44:56.512Z,4.60
2018-09-21T02:47:25.910Z,4.43
2018-09-21T02:49:55.310Z,4.43
2018-09-21T02:52:24.950Z,5.23
2018-09-21T02:54:54.471Z,5.63
2018-09-21T02:57:23.870Z,6.13
2018-09-21T02:59:53.264Z,5.30
2018-09-21T03:02:22.787Z,5.33
2018-09-21T03:04:53.746Z,5.30
2018-09-21T03:07:23.863Z,5.17
2018-09-21T03:09:59.376Z,5.40
2018-09-21T03:12:28.908Z,4.70
2018-09-21T03:14:58.387Z,4.93
2018-09-21T03:17:29.021Z,5.50
2018-09-21T03:19:58.664Z,5.47
2018-09-21T03:22:28.066Z,4.00
2018-09-21T03:24:57.461Z,6.43
2018-09-21T03:27:26.984Z,4.77
2018-09-21T03:29:56.619Z,5.57
2018-09-21T03:32:26.760Z,6.10
2018-09-21T03:34:56.410Z,5.57
2018-09-21T03:37:25.783Z,4.93
2018-09-21T03:39:55.060Z,5.60
2018-09-21T03:42:24.456Z,4.33
2018-09-21T03:44:53.855Z,5.90
2018-09-21T03:47:23.501Z,5.20
2018-09-21T03:49:53.136Z,4.20
2018-09-21T03:52:22.533Z,5.40
2018-09-21T03:54:52.057Z,5.90
2018-09-21T03:57:21.456Z,4.37
2018-09-21T03:59:50.972Z,3.80
2018-09-21T04:02:21.211Z,4.93
2018-09-21T04:04:50.611Z,3.80
2018-09-21T04:07:20.166Z,5.13
2018-09-21T04:09:50.184Z,5.03
2018-09-21T04:12:19.532Z,4.80
2018-09-21T04:14:49.646Z,3.30
2018-09-21T04:17:19.286Z,3.20
2018-09-21T04:19:48.926Z,4.43
2018-09-21T04:22:18.565Z,4.10
2018-09-21T04:24:48.204Z,3.53
2018-09-21T04:27:17.723Z,3.60
2018-09-21T04:29:47.362Z,3.33
2018-09-21T04:35:10.025Z,3.60
2018-09-21T04:37:39.569Z,3.50
2018-09-21T04:40:08.936Z,3.77
2018-09-21T04:42:38.361Z,1.80
2018-09-21T04:45:07.881Z,3.30
2018-09-21T04:47:37.397Z,3.97
2018-09-21T04:50:06.918Z,2.97
2018-09-21T04:52:36.558Z,2.70
2018-09-21T04:55:06.076Z,3.13
2018-09-21T04:57:35.964Z,3.07
2018-09-21T05:00:05.714Z,2.50
2018-09-21T05:02:35.117Z,3.30
2018-09-21T05:05:04.636Z,3.43
2018-09-21T05:07:34.276Z,3.37
2018-09-21T05:10:03.674Z,3.00
2018-09-21T05:12:33.314Z,4.40
2018-09-21T05:15:02.711Z,3.10
2018-09-21T05:17:32.113Z,3.20
2018-09-21T05:20:01.872Z,3.30
2018-09-21T05:22:31.509Z,2.57
2018-09-21T05:25:00.909Z,2.90
2018-09-21T05:27:30.556Z,2.47
2018-09-21T05:29:59.951Z,2.70
2018-09-21T05:32:29.347Z,2.83
2018-09-21T05:34:58.903Z,2.60
2018-09-21T05:37:28.746Z,2.50
2018-09-21T05:39:58.270Z,2.83
2018-09-21T05:42:27.664Z,3.23
2018-09-21T05:44:57.425Z,2.53
2018-09-21T05:47:27.035Z,3.37
2018-09-21T05:49:57.305Z,2.40
2018-09-21T05:52:26.824Z,3.20
2018-09-21T05:54:56.226Z,2.70
2018-09-21T05:57:26.102Z,3.10
2018-09-21T05:59:56.262Z,2.90
2018-09-21T06:02:25.918Z,3.00
2018-09-21T06:05:00.422Z,2.93
2018-09-21T06:07:30.303Z,2.97
2018-09-21T06:09:59.820Z,3.20
2018-09-21T06:12:29.578Z,3.73
2018-09-21T06:14:59.096Z,3.50
2018-09-21T06:17:28.623Z,3.37
2018-09-21T06:20:11.756Z,3.57
2018-09-21T06:22:27.900Z,3.63
2018-09-21T06:24:58.253Z,3.30
2018-09-21T06:27:27.630Z,3.33
2018-09-21T06:29:57.175Z,4.17
2018-09-21T06:32:26.575Z,3.40
2018-09-21T06:34:56.452Z,4.73
2018-09-21T06:37:25.961Z,4.37
2018-09-21T06:39:55.490Z,3.43
2018-09-21T06:42:24.773Z,3.93
2018-09-21T06:44:54.529Z,4.30
2018-09-21T06:47:24.067Z,4.07
2018-09-21T06:55:39.766Z,3.87
2018-09-21T06:58:09.526Z,3.20
2018-09-21T07:00:39.285Z,5.07
2018-09-21T07:03:09.170Z,3.80
2018-09-21T07:05:38.569Z,4.87
2018-09-21T07:08:08.207Z,3.63
2018-09-21T07:10:37.602Z,4.30
2018-09-21T07:13:07.123Z,4.80
2018-09-21T07:15:36.641Z,4.13
2018-09-21T07:18:06.040Z,4.00
2018-09-21T07:20:35.443Z,2.80
2018-09-21T07:23:05.201Z,3.17
2018-09-21T07:25:34.601Z,2.47
2018-09-21T07:28:04.240Z,2.10
2018-09-21T07:30:34.122Z,2.73
2018-09-21T07:33:03.876Z,2.00
2018-09-21T07:35:33.395Z,2.67
2018-09-21T07:38:02.794Z,2.10
2018-09-21T07:40:32.441Z,2.90
2018-09-21T07:43:01.986Z,3.60
2018-09-21T07:45:31.476Z,3.77
2018-09-21T07:48:01.234Z,2.90
2018-09-21T07:50:30.828Z,2.37
2018-09-21T07:53:00.399Z,2.20
2018-09-21T07:55:30.030Z,2.83
2018-09-21T07:57:59.436Z,2.87
2018-09-21T08:00:29.021Z,2.97
2018-09-21T08:02:58.835Z,2.60
2018-09-21T08:05:33.358Z,5.77
2018-09-21T08:08:04.469Z,5.30
2018-09-21T08:10:33.986Z,3.13
2018-09-21T08:13:03.511Z,3.40
2018-09-21T08:15:33.746Z,4.17
2018-09-21T08:18:03.026Z,3.73
2018-09-21T08:20:32.669Z,1.77
2018-09-21T08:23:02.442Z,2.60
2018-09-21T08:25:32.067Z,3.80
2018-09-21T08:28:01.706Z,3.37
2018-09-21T08:30:31.345Z,2.57
2018-09-21T08:33:00.780Z,2.93
2018-09-21T08:35:30.264Z,3.07
2018-09-21T08:38:00.022Z,5.37
2018-09-21T08:40:29.424Z,4.30
2018-09-21T08:42:59.023Z,3.90
2018-09-21T08:45:28.706Z,4.00
2018-09-21T08:47:58.227Z,4.13
2018-09-21T08:50:27.617Z,3.23
2018-09-21T08:52:57.020Z,4.13
2018-09-21T08:55:26.536Z,3.47
2018-09-21T08:57:56.178Z,4.97
2018-09-21T09:00:25.460Z,3.27
2018-09-21T09:02:54.772Z,3.00
2018-09-21T09:05:26.298Z,3.37
2018-09-21T09:07:55.573Z,3.03
2018-09-21T09:10:25.096Z,2.63
2018-09-21T09:12:54.491Z,3.03
2018-09-21T09:15:24.013Z,2.50
2018-09-21T09:17:53.414Z,3.47
2018-09-21T09:20:22.814Z,3.43
2018-09-21T09:22:52.449Z,3.07
2018-09-21T09:25:21.971Z,3.53
2018-09-21T09:27:51.491Z,3.17
2018-09-21T09:30:21.132Z,3.63
2018-09-21T09:32:50.476Z,2.70
2018-09-21T09:35:19.929Z,4.53
2018-09-21T09:37:49.694Z,3.53
2018-09-21T09:40:19.087Z,3.57
2018-09-21T09:42:48.743Z,2.67
2018-09-21T09:45:18.125Z,2.80
2018-09-21T09:47:47.764Z,3.17
2018-09-21T09:50:17.283Z,3.10
2018-09-21T09:52:46.926Z,3.67
2018-09-21T09:55:16.688Z,3.67
2018-09-21T09:57:46.206Z,3.70
2018-09-21T10:00:19.443Z,3.00
2018-09-21T10:02:48.961Z,4.50
2018-09-21T10:05:18.600Z,4.10
2018-09-21T10:07:48.121Z,3.80
2018-09-21T10:10:17.833Z,3.93
2018-09-21T10:12:47.399Z,2.10
2018-09-21T10:15:16.798Z,1.77
2018-09-21T10:17:46.317Z,2.10
2018-09-21T10:20:15.904Z,1.43
2018-09-21T10:22:45.475Z,1.00
2018-09-21T10:25:15.004Z,2.17
2018-09-21T10:27:44.677Z,0.60
2018-09-21T10:30:14.034Z,1.70
2018-09-21T10:32:43.552Z,0.63
2018-09-21T10:35:13.207Z,1.87
2018-09-21T10:37:42.594Z,1.03
2018-09-21T10:40:12.019Z,0.60
2018-09-21T10:42:41.570Z,0.90
2018-09-21T10:45:10.909Z,1.00
2018-09-21T10:47:40.429Z,1.13
2018-09-21T10:50:09.828Z,1.17
2018-09-21T10:52:39.393Z,0.73
2018-09-21T10:55:09.107Z,1.37
2018-09-21T10:57:38.505Z,1.13
2018-09-21T11:00:08.750Z,0.80
2018-09-21T11:02:38.266Z,0.70
2018-09-21T11:05:07.667Z,0.90
2018-09-21T11:07:37.186Z,0.93
2018-09-21T11:10:06.822Z,1.50
2018-09-21T11:12:36.824Z,1.30
2018-09-21T11:15:06.221Z,1.80
2018-09-21T11:17:35.861Z,1.37
2018-09-21T11:20:05.685Z,0.77
2018-09-21T11:22:35.381Z,1.13
2018-09-21T11:25:05.269Z,0.90
2018-09-21T11:27:35.382Z,1.13
2018-09-21T11:30:05.144Z,0.57
2018-09-21T11:32:35.739Z,0.77
2018-09-21T11:35:05.377Z,0.70
2018-09-21T11:37:35.014Z,0.60
2018-09-21T11:40:04.661Z,1.30
2018-09-21T11:42:34.174Z,0.80
2018-09-21T11:45:03.819Z,0.50
2018-09-21T11:47:34.340Z,0.77
2018-09-21T11:50:03.813Z,0.53
2018-09-21T11:52:33.337Z,0.60
2018-09-21T11:55:02.736Z,0.40
2018-09-21T11:57:32.254Z,0.70
2018-09-21T12:00:01.531Z,2.20
2018-09-21T12:02:31.052Z,0.87
2018-09-21T12:05:00.813Z,0.60
2018-09-21T12:07:30.210Z,0.50
2018-09-21T12:09:59.849Z,0.40
2018-09-21T12:12:29.486Z,0.40
2018-09-21T12:14:59.012Z,0.40
2018-09-21T12:17:28.527Z,0.50
2018-09-21T12:19:58.134Z,1.00
2018-09-21T12:22:27.569Z,0.30
2018-09-21T12:24:57.088Z,0.83
2018-09-21T12:27:27.088Z,0.40
2018-09-21T12:29:57.584Z,0.50
2018-09-21T12:32:27.806Z,0.30
2018-09-21T12:34:58.405Z,0.70
2018-09-21T12:37:28.670Z,0.67
2018-09-21T12:39:58.381Z,0.40
2018-09-21T12:42:27.851Z,0.40
2018-09-21T12:44:57.559Z,0.40
2018-09-21T12:47:26.843Z,0.50
2018-09-21T12:49:56.239Z,0.30
2018-09-21T12:52:26.001Z,0.30
2018-09-21T12:54:55.826Z,0.47
2018-09-21T12:57:25.761Z,0.30
2018-09-21T12:59:55.158Z,0.47
2018-09-21T13:02:24.679Z,0.63
2018-09-21T13:04:54.076Z,0.40
2018-09-21T13:07:23.596Z,0.40
2018-09-21T13:09:53.114Z,0.53
2018-09-21T13:12:22.515Z,0.40
2018-09-21T13:14:52.993Z,0.40
2018-09-21T13:17:22.632Z,0.80
2018-09-21T13:19:52.031Z,0.40
2018-09-21T13:22:21.673Z,0.60
2018-09-21T13:24:51.074Z,0.40
2018-09-21T13:27:20.612Z,0.40
2018-09-21T13:29:50.473Z,0.73
2018-09-21T13:32:20.020Z,0.50
2018-09-21T13:34:49.627Z,1.20
2018-09-21T13:37:19.147Z,0.40
2018-09-21T13:39:48.428Z,0.47
2018-09-21T13:42:18.490Z,0.50
2018-09-21T13:44:47.895Z,0.60
2018-09-21T13:47:17.503Z,0.50
2018-09-21T13:49:47.463Z,1.40
2018-09-21T13:52:17.103Z,0.50
2018-09-21T13:54:46.501Z,0.33
2018-09-21T13:57:16.027Z,0.50
2018-09-21T13:59:45.545Z,0.77
2018-09-21T14:02:14.943Z,0.50
2018-09-21T14:04:44.701Z,0.40
2018-09-21T14:07:14.101Z,0.73
2018-09-21T14:09:43.511Z,0.60
2018-09-21T14:12:13.739Z,0.43
2018-09-21T14:14:43.139Z,0.40
2018-09-21T14:17:12.898Z,0.93
2018-09-21T14:19:42.654Z,0.30
2018-09-21T14:22:12.297Z,0.80
2018-09-21T14:24:41.815Z,0.43
2018-09-21T14:27:12.160Z,0.67
2018-09-21T14:29:41.695Z,0.50
2018-09-21T14:32:11.334Z,0.37
2018-09-21T14:34:40.612Z,0.40
2018-09-21T14:37:10.250Z,0.50
2018-09-21T14:39:39.651Z,0.80
2018-09-21T14:42:09.532Z,0.40
2018-09-21T14:44:39.170Z,1.17
2018-09-21T14:47:08.571Z,0.70
2018-09-21T14:49:37.970Z,0.30
2018-09-21T14:52:07.490Z,0.97
2018-09-21T14:54:37.008Z,0.60
2018-09-21T14:57:06.529Z,1.13
2018-09-21T14:59:36.050Z,0.80
2018-09-21T15:02:05.807Z,0.70
2018-09-21T15:04:36.045Z,0.70
2018-09-21T15:07:05.565Z,0.60
2018-09-21T15:09:34.985Z,0.57
2018-09-21T15:12:04.847Z,1.00
2018-09-21T15:14:34.242Z,0.67
2018-09-21T15:17:03.763Z,0.93
2018-09-21T15:19:33.283Z,0.93
2018-09-21T15:22:02.806Z,0.70
2018-09-21T15:24:32.442Z,0.60
2018-09-21T15:27:02.322Z,0.97
2018-09-21T15:29:31.602Z,0.50
2018-09-21T15:32:01.126Z,0.90
2018-09-21T15:34:30.567Z,0.70
2018-09-21T15:37:00.037Z,0.63
2018-09-21T15:39:29.438Z,0.60
2018-09-21T15:41:58.959Z,0.63
2018-09-21T15:44:28.481Z,0.60
2018-09-21T15:46:57.876Z,0.50
2018-09-21T15:49:27.514Z,0.60
2018-09-21T15:51:56.914Z,0.43
2018-09-21T15:54:26.313Z,0.50
2018-09-21T15:56:55.984Z,1.30
2018-09-21T15:59:25.592Z,0.60
2018-09-21T16:01:54.994Z,0.87
2018-09-21T16:04:24.392Z,0.80
2018-09-21T16:06:54.157Z,0.50
2018-09-21T16:09:23.674Z,0.73
2018-09-21T16:11:53.072Z,0.77
2018-09-21T16:14:22.371Z,0.80
2018-09-21T16:16:51.987Z,1.07
2018-09-21T16:19:21.507Z,0.70
2018-09-21T16:21:50.906Z,0.50
2018-09-21T16:24:21.240Z,1.07
2018-09-21T16:26:50.666Z,0.93
2018-09-21T16:29:20.308Z,0.80
2018-09-21T16:31:49.840Z,1.80
2018-09-21T16:34:19.634Z,1.00
2018-09-21T16:36:49.226Z,0.60
2018-09-21T16:39:18.790Z,1.30
2018-09-21T16:41:48.252Z,1.10
2018-09-21T16:44:17.782Z,1.00
2018-09-21T16:46:47.420Z,2.17
2018-09-21T16:49:17.059Z,1.30
2018-09-21T16:51:46.583Z,1.33
2018-09-21T16:54:15.979Z,0.90
2018-09-21T16:56:45.498Z,1.83
2018-09-21T16:59:15.001Z,1.10
2018-09-21T17:01:44.538Z,0.90
2018-09-21T17:04:14.116Z,1.00
2018-09-21T17:06:43.724Z,0.60
2018-09-21T17:09:13.578Z,0.90
2018-09-21T17:11:43.216Z,0.63
2018-09-21T17:14:12.731Z,1.27
2018-09-21T17:16:42.254Z,0.97
2018-09-21T17:19:12.019Z,1.20
2018-09-21T17:21:41.414Z,0.97
2018-09-21T17:24:10.942Z,1.10
2018-09-21T17:26:40.636Z,1.03
2018-09-21T17:29:10.939Z,1.20
2018-09-21T17:31:41.436Z,0.70
2018-09-21T17:34:10.809Z,1.43
2018-09-21T17:36:40.099Z,1.00
2018-09-21T17:39:12.248Z,1.37
2018-09-21T17:41:42.487Z,1.23
2018-09-21T17:44:11.891Z,0.93
2018-09-21T17:46:41.407Z,1.20
2018-09-21T17:49:10.926Z,1.67
2018-09-21T17:51:40.324Z,1.10
2018-09-21T17:54:09.843Z,1.80
2018-09-21T17:56:39.366Z,1.03
2018-09-21T17:59:09.248Z,1.40
2018-09-21T18:01:38.883Z,1.63
2018-09-21T18:04:08.405Z,1.30
2018-09-21T18:06:38.060Z,1.17
2018-09-21T18:09:09.129Z,0.97
2018-09-21T18:11:38.639Z,1.60
2018-09-21T18:14:08.037Z,2.70
2018-09-21T18:16:37.570Z,1.23
2018-09-21T18:19:07.799Z,2.10
2018-09-21T18:21:37.338Z,1.17
2018-09-21T18:24:07.798Z,1.17
2018-09-21T18:26:37.318Z,1.87
2018-09-21T18:29:06.842Z,2.00
2018-09-21T18:31:37.428Z,1.67
2018-09-21T18:34:06.987Z,1.67
2018-09-21T18:36:37.075Z,0.83
2018-09-21T18:39:07.793Z,2.53
2018-09-21T18:41:37.313Z,1.10
2018-09-21T18:44:07.191Z,1.13
2018-09-21T18:46:36.561Z,1.87
2018-09-21T18:49:06.175Z,1.27
2018-09-21T18:51:35.628Z,2.17
2018-09-21T18:54:05.389Z,1.50
2018-09-21T18:56:35.099Z,1.00
2018-09-21T18:59:04.913Z,2.00
2018-09-21T19:01:35.148Z,1.80
2018-09-21T19:04:04.978Z,2.30
2018-09-21T19:06:34.425Z,1.77
2018-09-21T19:09:04.069Z,2.20
2018-09-21T19:11:33.825Z,1.30
2018-09-21T19:14:03.463Z,1.30
2018-09-21T19:16:32.983Z,2.87
2018-09-21T19:19:02.557Z,1.83
2018-09-21T19:21:32.142Z,1.93
2018-09-21T19:24:01.782Z,3.80
2018-09-21T19:26:31.238Z,1.67
2018-09-21T19:29:00.728Z,1.30
2018-09-21T19:31:30.580Z,2.47
2018-09-21T19:34:00.100Z,1.50
2018-09-21T19:36:29.621Z,1.40
2018-09-21T19:38:59.139Z,1.43
2018-09-21T19:41:28.538Z,2.10
2018-09-21T19:43:57.935Z,2.17
2018-09-21T19:46:27.334Z,1.57
2018-09-21T19:48:56.738Z,1.23
2018-09-21T19:51:26.378Z,2.27
2018-09-21T19:53:55.894Z,2.47
2018-09-21T20:02:12.129Z,4.77
2018-09-21T20:04:41.607Z,1.67
2018-09-21T20:07:11.134Z,3.47
2018-09-21T20:09:40.850Z,1.50
2018-09-21T20:12:10.531Z,2.27
2018-09-21T20:14:39.928Z,2.30
2018-09-21T20:17:09.328Z,3.00
2018-09-21T20:19:38.727Z,2.77
2018-09-21T20:22:10.886Z,1.90
2018-09-21T20:24:40.407Z,4.13
2018-09-21T20:27:09.815Z,3.27
2018-09-21T20:29:39.206Z,2.60
2018-09-21T20:32:13.921Z,1.93
2018-09-21T20:34:44.364Z,2.63
2018-09-21T20:37:13.888Z,3.00
2018-09-21T20:39:43.526Z,1.70
2018-09-21T20:42:13.163Z,2.50
2018-09-21T20:44:43.467Z,2.30
2018-09-21T20:47:12.922Z,2.70
2018-09-21T20:49:42.320Z,3.00
2018-09-21T20:52:11.841Z,2.03
2018-09-21T20:54:41.603Z,3.25
2018-09-21T20:57:11.960Z,2.77
2018-09-21T20:59:41.477Z,2.97
2018-09-21T21:02:11.002Z,2.80
2018-09-21T21:04:40.412Z,2.13
2018-09-21T21:07:10.058Z,1.93
2018-09-21T21:09:39.677Z,2.23
2018-09-21T21:12:09.074Z,2.07
2018-09-21T21:14:38.473Z,1.57
2018-09-21T21:17:08.117Z,3.80
2018-09-21T21:19:37.758Z,3.70
2018-09-21T21:22:07.419Z,2.50
2018-09-21T21:24:37.151Z,2.27
2018-09-21T21:27:06.675Z,4.10
2018-09-21T21:29:36.190Z,2.50
2018-09-21T21:32:05.711Z,3.80
2018-09-21T21:34:35.115Z,2.07
2018-09-21T21:37:04.992Z,2.40
2018-09-21T21:39:34.388Z,2.50
2018-09-21T21:42:03.669Z,2.87
2018-09-21T21:44:33.068Z,2.90
2018-09-21T21:47:03.193Z,2.70
2018-09-21T21:49:32.585Z,3.10
2018-09-21T21:52:01.876Z,3.47
2018-09-21T21:54:31.625Z,3.00
2018-09-21T21:57:01.146Z,2.80
2018-09-21T21:59:30.484Z,3.23
2018-09-21T22:02:00.303Z,3.03
2018-09-21T22:04:29.942Z,2.20
2018-09-21T22:06:59.415Z,3.20
2018-09-21T22:09:28.980Z,1.80
2018-09-21T22:12:03.781Z,2.33
2018-09-21T22:14:34.140Z,2.17
2018-09-21T22:17:03.543Z,2.90
2018-09-21T22:19:32.951Z,2.50
2018-09-21T22:22:02.457Z,2.63
2018-09-21T22:24:31.859Z,1.93
2018-09-21T22:27:01.302Z,2.70
2018-09-21T22:29:30.779Z,2.40
2018-09-21T22:32:00.176Z,2.98
2018-09-21T22:34:29.813Z,4.10
2018-09-21T22:36:59.377Z,1.83
2018-09-21T22:39:28.734Z,2.00
2018-09-21T22:41:58.372Z,2.42
2018-09-21T22:44:28.013Z,1.80
2018-09-21T22:46:57.415Z,3.23
2018-09-21T22:49:27.056Z,3.30
2018-09-21T22:51:57.410Z,3.80
2018-09-21T22:54:26.577Z,3.00
2018-09-21T22:56:56.211Z,2.93
2018-09-21T22:59:25.491Z,2.87
2018-09-21T23:01:54.896Z,2.57
2018-09-21T23:04:25.368Z,3.00
2018-09-21T23:06:54.887Z,1.87
2018-09-21T23:09:24.167Z,3.53
2018-09-21T23:11:53.689Z,4.43
2018-09-21T23:14:23.204Z,2.35
2018-09-21T23:16:52.606Z,1.80
2018-09-21T23:19:22.124Z,2.25
2018-09-21T23:21:51.763Z,2.77
2018-09-21T23:24:21.523Z,3.50
2018-09-21T23:26:50.924Z,2.50
2018-09-21T23:29:20.446Z,1.92
2018-09-21T23:31:50.168Z,2.52
2018-09-21T23:34:19.906Z,1.70
2018-09-21T23:36:49.725Z,3.17
2018-09-21T23:39:19.481Z,3.43
2018-09-21T23:41:49.962Z,2.80
2018-09-21T23:44:19.478Z,4.23
2018-09-21T23:46:48.880Z,3.42
2018-09-21T23:49:18.399Z,3.37
2018-09-21T23:51:47.988Z,2.03
2018-09-21T23:54:17.677Z,2.53
2018-09-21T23:56:47.559Z,2.98
2018-09-21T23:59:16.959Z,2.90
